sensor_id;sensor_type;location;lat;lon;timestamp;P1;durP1;ratioP1;P2;durP2;ratioP2
72785;SDS011;60902;53.876;10.674;2023-11-21T00:00:01;9.10;;;5.25;;
72785;SDS011;60902;53.876;10.674;2023-11-21T00:00:15;9.07;;;5.43;;
72785;SDS011;60902;53.876;10.674;2023-11-21T00:00:27;9.18;;;5.82;;
72785;SDS011;60902;53.876;10.674;2023-11-21T00:00:38;8.15;;;5.65;;
72785;SDS011;60902;53.876;10.674;2023-11-21T00:00:49;8.13;;;5.77;;
72785;SDS011;60902;53.876;10.674;2023-11-21T00:01:00;8.15;;;5.47;;
72785;SDS011;60902;53.876;10.674;2023-11-21T00:01:14;8.45;;;5.53;;
72785;SDS011;60902;53.876;10.674;2023-11-21T00:01:25;8.32;;;5.60;;
72785;SDS011;60902;53.876;10.674;2023-11-21T00:01:35;8.20;;;5.45;;
72785;SDS011;60902;53.876;10.674;2023-11-21T00:01:47;8.23;;;5.43;;
72785;SDS011;60902;53.876;10.674;2023-11-21T00:01:58;8.48;;;5.68;;
72785;SDS011;60902;53.876;10.674;2023-11-21T00:02:08;8.80;;;6.03;;
72785;SDS011;60902;53.876;10.674;2023-11-21T00:02:19;8.55;;;5.78;;
72785;SDS011;60902;53.876;10.674;2023-11-21T00:02:30;8.13;;;5.50;;
72785;SDS011;60902;53.876;10.674;2023-11-21T00:02:41;8.48;;;5.40;;
72785;SDS011;60902;53.876;10.674;2023-11-21T00:02:54;8.27;;;5.50;;
72785;SDS011;60902;53.876;10.674;2023-11-21T00:03:06;8.60;;;5.45;;
72785;SDS011;60902;53.876;10.674;2023-11-21T00:03:17;8.65;;;5.57;;
72785;SDS011;60902;53.876;10.674;2023-11-21T00:03:29;8.85;;;5.68;;
72785;SDS011;60902;53.876;10.674;2023-11-21T00:03:40;8.38;;;5.55;;
72785;SDS011;60902;53.876;10.674;2023-11-21T00:03:54;7.78;;;5.35;;
72785;SDS011;60902;53.876;10.674;2023-11-21T00:04:05;7.95;;;5.40;;
72785;SDS011;60902;53.876;10.674;2023-11-21T00:04:17;9.10;;;5.35;;
72785;SDS011;60902;53.876;10.674;2023-11-21T00:04:28;9.23;;;5.10;;
72785;SDS011;60902;53.876;10.674;2023-11-21T00:04:39;8.65;;;5.00;;
72785;SDS011;60902;53.876;10.674;2023-11-21T00:04:50;7.57;;;4.90;;
72785;SDS011;60902;53.876;10.674;2023-11-21T00:05:01;7.82;;;5.00;;
72785;SDS011;60902;53.876;10.674;2023-11-21T00:05:13;7.68;;;4.82;;
72785;SDS011;60902;53.876;10.674;2023-11-21T00:05:24;7.70;;;4.97;;
72785;SDS011;60902;53.876;10.674;2023-11-21T00:05:35;7.80;;;5.10;;
72785;SDS011;60902;53.876;10.674;2023-11-21T00:05:46;8.27;;;5.47;;
72785;SDS011;60902;53.876;10.674;2023-11-21T00:05:58;8.20;;;5.47;;
72785;SDS011;60902;53.876;10.674;2023-11-21T00:06:10;7.97;;;5.22;;
72785;SDS011;60902;53.876;10.674;2023-11-21T00:06:21;8.20;;;4.95;;
72785;SDS011;60902;53.876;10.674;2023-11-21T00:06:32;9.10;;;4.88;;
72785;SDS011;60902;53.876;10.674;2023-11-21T00:06:45;9.45;;;5.15;;
72785;SDS011;60902;53.876;10.674;2023-11-21T00:06:57;8.32;;;4.93;;
72785;SDS011;60902;53.876;10.674;2023-11-21T00:07:08;8.05;;;5.00;;
72785;SDS011;60902;53.876;10.674;2023-11-21T00:07:18;7.65;;;4.85;;
72785;SDS011;60902;53.876;10.674;2023-11-21T00:07:31;7.57;;;5.03;;
72785;SDS011;60902;53.876;10.674;2023-11-21T00:07:42;7.70;;;5.18;;
72785;SDS011;60902;53.876;10.674;2023-11-21T00:07:53;8.65;;;5.40;;
72785;SDS011;60902;53.876;10.674;2023-11-21T00:08:04;8.90;;;5.60;;
72785;SDS011;60902;53.876;10.674;2023-11-21T00:08:15;8.73;;;5.53;;
72785;SDS011;60902;53.876;10.674;2023-11-21T00:08:26;8.48;;;5.60;;
72785;SDS011;60902;53.876;10.674;2023-11-21T00:08:38;8.50;;;5.43;;
72785;SDS011;60902;53.876;10.674;2023-11-21T00:08:49;8.70;;;5.43;;
72785;SDS011;60902;53.876;10.674;2023-11-21T00:09:00;8.82;;;5.38;;
72785;SDS011;60902;53.876;10.674;2023-11-21T00:09:11;8.50;;;5.20;;
72785;SDS011;60902;53.876;10.674;2023-11-21T00:09:25;7.95;;;4.82;;
72785;SDS011;60902;53.876;10.674;2023-11-21T00:09:36;8.20;;;5.05;;
72785;SDS011;60902;53.876;10.674;2023-11-21T00:09:47;8.05;;;5.22;;
72785;SDS011;60902;53.876;10.674;2023-11-21T00:09:58;7.95;;;5.25;;
72785;SDS011;60902;53.876;10.674;2023-11-21T00:10:11;8.50;;;5.60;;
72785;SDS011;60902;53.876;10.674;2023-11-21T00:10:24;8.80;;;5.78;;
72785;SDS011;60902;53.876;10.674;2023-11-21T00:10:35;8.20;;;5.43;;
72785;SDS011;60902;53.876;10.674;2023-11-21T00:10:48;8.20;;;5.28;;
72785;SDS011;60902;53.876;10.674;2023-11-21T00:10:59;8.10;;;4.97;;
72785;SDS011;60902;53.876;10.674;2023-11-21T00:11:10;8.57;;;5.10;;
72785;SDS011;60902;53.876;10.674;2023-11-21T00:11:22;8.30;;;5.15;;
72785;SDS011;60902;53.876;10.674;2023-11-21T00:11:35;8.85;;;5.15;;
72785;SDS011;60902;53.876;10.674;2023-11-21T00:11:48;8.43;;;4.82;;
72785;SDS011;60902;53.876;10.674;2023-11-21T00:11:58;8.23;;;5.00;;
72785;SDS011;60902;53.876;10.674;2023-11-21T00:12:10;7.63;;;5.33;;
72785;SDS011;60902;53.876;10.674;2023-11-21T00:12:20;8.38;;;5.40;;
72785;SDS011;60902;53.876;10.674;2023-11-21T00:12:31;8.82;;;5.35;;
72785;SDS011;60902;53.876;10.674;2023-11-21T00:12:43;9.05;;;5.45;;
72785;SDS011;60902;53.876;10.674;2023-11-21T00:12:54;8.95;;;5.57;;
72785;SDS011;60902;53.876;10.674;2023-11-21T00:13:06;8.45;;;5.35;;
72785;SDS011;60902;53.876;10.674;2023-11-21T00:13:17;8.15;;;5.20;;
72785;SDS011;60902;53.876;10.674;2023-11-21T00:13:28;7.82;;;5.03;;
72785;SDS011;60902;53.876;10.674;2023-11-21T00:13:39;8.35;;;5.10;;
72785;SDS011;60902;53.876;10.674;2023-11-21T00:13:50;8.70;;;5.18;;
72785;SDS011;60902;53.876;10.674;2023-11-21T00:14:01;9.13;;;5.40;;
72785;SDS011;60902;53.876;10.674;2023-11-21T00:14:13;8.43;;;5.47;;
72785;SDS011;60902;53.876;10.674;2023-11-21T00:14:25;7.47;;;5.13;;
72785;SDS011;60902;53.876;10.674;2023-11-21T00:14:36;7.35;;;5.05;;
72785;SDS011;60902;53.876;10.674;2023-11-21T00:14:48;8.07;;;5.07;;
72785;SDS011;60902;53.876;10.674;2023-11-21T00:14:59;8.18;;;5.28;;
72785;SDS011;60902;53.876;10.674;2023-11-21T00:15:11;8.48;;;5.93;;
72785;SDS011;60902;53.876;10.674;2023-11-21T00:15:22;8.53;;;5.73;;
72785;SDS011;60902;53.876;10.674;2023-11-21T00:15:33;8.55;;;5.22;;
72785;SDS011;60902;53.876;10.674;2023-11-21T00:15:44;7.95;;;4.68;;
72785;SDS011;60902;53.876;10.674;2023-11-21T00:15:55;7.80;;;5.10;;
72785;SDS011;60902;53.876;10.674;2023-11-21T00:16:06;7.68;;;5.15;;
72785;SDS011;60902;53.876;10.674;2023-11-21T00:16:17;7.65;;;5.00;;
72785;SDS011;60902;53.876;10.674;2023-11-21T00:16:32;7.60;;;4.90;;
72785;SDS011;60902;53.876;10.674;2023-11-21T00:16:44;7.85;;;5.00;;
72785;SDS011;60902;53.876;10.674;2023-11-21T00:16:55;8.23;;;5.03;;
72785;SDS011;60902;53.876;10.674;2023-11-21T00:17:07;8.55;;;5.30;;
72785;SDS011;60902;53.876;10.674;2023-11-21T00:17:18;8.48;;;5.43;;
72785;SDS011;60902;53.876;10.674;2023-11-21T00:17:29;8.02;;;5.18;;
72785;SDS011;60902;53.876;10.674;2023-11-21T00:17:40;7.90;;;5.00;;
72785;SDS011;60902;53.876;10.674;2023-11-21T00:17:51;8.25;;;5.13;;
72785;SDS011;60902;53.876;10.674;2023-11-21T00:18:02;8.53;;;5.40;;
72785;SDS011;60902;53.876;10.674;2023-11-21T00:18:13;8.52;;;5.38;;
72785;SDS011;60902;53.876;10.674;2023-11-21T00:18:25;8.35;;;5.07;;
72785;SDS011;60902;53.876;10.674;2023-11-21T00:18:36;8.38;;;5.00;;
72785;SDS011;60902;53.876;10.674;2023-11-21T00:18:47;8.02;;;4.88;;
72785;SDS011;60902;53.876;10.674;2023-11-21T00:18:58;7.43;;;4.80;;
72785;SDS011;60902;53.876;10.674;2023-11-21T00:19:09;7.50;;;4.90;;
72785;SDS011;60902;53.876;10.674;2023-11-21T00:19:19;7.88;;;5.10;;
72785;SDS011;60902;53.876;10.674;2023-11-21T00:19:30;7.90;;;5.10;;
72785;SDS011;60902;53.876;10.674;2023-11-21T00:19:41;7.70;;;4.85;;
72785;SDS011;60902;53.876;10.674;2023-11-21T00:19:53;7.93;;;4.80;;
72785;SDS011;60902;53.876;10.674;2023-11-21T00:20:04;7.82;;;4.88;;
72785;SDS011;60902;53.876;10.674;2023-11-21T00:20:17;7.90;;;4.95;;
72785;SDS011;60902;53.876;10.674;2023-11-21T00:20:28;8.35;;;5.43;;
72785;SDS011;60902;53.876;10.674;2023-11-21T00:20:39;8.13;;;5.22;;
72785;SDS011;60902;53.876;10.674;2023-11-21T00:20:50;8.20;;;5.15;;
72785;SDS011;60902;53.876;10.674;2023-11-21T00:21:01;8.43;;;4.90;;
72785;SDS011;60902;53.876;10.674;2023-11-21T00:21:13;8.90;;;4.90;;
72785;SDS011;60902;53.876;10.674;2023-11-21T00:21:24;8.45;;;4.80;;
72785;SDS011;60902;53.876;10.674;2023-11-21T00:21:35;7.82;;;4.85;;
72785;SDS011;60902;53.876;10.674;2023-11-21T00:21:48;7.72;;;4.90;;
72785;SDS011;60902;53.876;10.674;2023-11-21T00:21:59;7.95;;;5.13;;
72785;SDS011;60902;53.876;10.674;2023-11-21T00:22:11;7.53;;;4.97;;
72785;SDS011;60902;53.876;10.674;2023-11-21T00:22:23;7.68;;;4.93;;
72785;SDS011;60902;53.876;10.674;2023-11-21T00:22:34;7.68;;;4.80;;
72785;SDS011;60902;53.876;10.674;2023-11-21T00:22:45;7.95;;;5.10;;
72785;SDS011;60902;53.876;10.674;2023-11-21T00:22:56;7.93;;;5.18;;
72785;SDS011;60902;53.876;10.674;2023-11-21T00:23:07;7.70;;;5.03;;
72785;SDS011;60902;53.876;10.674;2023-11-21T00:23:20;7.55;;;4.70;;
72785;SDS011;60902;53.876;10.674;2023-11-21T00:23:31;7.97;;;4.90;;
72785;SDS011;60902;53.876;10.674;2023-11-21T00:23:42;8.23;;;4.90;;
72785;SDS011;60902;53.876;10.674;2023-11-21T00:23:53;8.10;;;5.05;;
72785;SDS011;60902;53.876;10.674;2023-11-21T00:24:04;7.53;;;4.70;;
72785;SDS011;60902;53.876;10.674;2023-11-21T00:24:15;7.03;;;4.57;;
72785;SDS011;60902;53.876;10.674;2023-11-21T00:24:27;7.57;;;4.68;;
72785;SDS011;60902;53.876;10.674;2023-11-21T00:24:38;8.18;;;5.03;;
72785;SDS011;60902;53.876;10.674;2023-11-21T00:24:49;8.27;;;4.93;;
72785;SDS011;60902;53.876;10.674;2023-11-21T00:25:00;7.88;;;4.88;;
72785;SDS011;60902;53.876;10.674;2023-11-21T00:25:13;7.68;;;4.95;;
72785;SDS011;60902;53.876;10.674;2023-11-21T00:25:25;8.05;;;5.05;;
72785;SDS011;60902;53.876;10.674;2023-11-21T00:25:36;7.90;;;5.00;;
72785;SDS011;60902;53.876;10.674;2023-11-21T00:25:47;7.72;;;4.80;;
72785;SDS011;60902;53.876;10.674;2023-11-21T00:25:57;8.50;;;4.90;;
72785;SDS011;60902;53.876;10.674;2023-11-21T00:26:08;8.50;;;4.88;;
72785;SDS011;60902;53.876;10.674;2023-11-21T00:26:19;9.48;;;4.95;;
72785;SDS011;60902;53.876;10.674;2023-11-21T00:26:30;8.75;;;5.10;;
72785;SDS011;60902;53.876;10.674;2023-11-21T00:26:46;8.23;;;5.00;;
72785;SDS011;60902;53.876;10.674;2023-11-21T00:26:59;8.10;;;5.13;;
72785;SDS011;60902;53.876;10.674;2023-11-21T00:27:10;7.85;;;5.10;;
72785;SDS011;60902;53.876;10.674;2023-11-21T00:27:20;7.60;;;5.00;;
72785;SDS011;60902;53.876;10.674;2023-11-21T00:27:31;7.30;;;4.88;;
72785;SDS011;60902;53.876;10.674;2023-11-21T00:27:42;7.43;;;4.93;;
72785;SDS011;60902;53.876;10.674;2023-11-21T00:27:53;7.38;;;4.85;;
72785;SDS011;60902;53.876;10.674;2023-11-21T00:28:04;7.70;;;4.88;;
72785;SDS011;60902;53.876;10.674;2023-11-21T00:28:15;7.20;;;4.60;;
72785;SDS011;60902;53.876;10.674;2023-11-21T00:28:26;7.40;;;4.78;;
72785;SDS011;60902;53.876;10.674;2023-11-21T00:28:38;7.23;;;4.57;;
72785;SDS011;60902;53.876;10.674;2023-11-21T00:28:50;8.00;;;4.80;;
72785;SDS011;60902;53.876;10.674;2023-11-21T00:29:01;8.13;;;4.95;;
72785;SDS011;60902;53.876;10.674;2023-11-21T00:29:12;8.18;;;5.05;;
72785;SDS011;60902;53.876;10.674;2023-11-21T00:29:23;7.97;;;5.00;;
72785;SDS011;60902;53.876;10.674;2023-11-21T00:29:33;7.97;;;4.90;;
72785;SDS011;60902;53.876;10.674;2023-11-21T00:29:44;8.13;;;4.88;;
72785;SDS011;60902;53.876;10.674;2023-11-21T00:29:55;8.25;;;4.88;;
72785;SDS011;60902;53.876;10.674;2023-11-21T00:30:06;7.90;;;4.88;;
72785;SDS011;60902;53.876;10.674;2023-11-21T00:30:18;7.93;;;4.70;;
72785;SDS011;60902;53.876;10.674;2023-11-21T00:30:32;8.25;;;4.82;;
72785;SDS011;60902;53.876;10.674;2023-11-21T00:30:43;8.02;;;4.75;;
72785;SDS011;60902;53.876;10.674;2023-11-21T00:30:54;7.63;;;4.90;;
72785;SDS011;60902;53.876;10.674;2023-11-21T00:31:05;7.40;;;4.70;;
72785;SDS011;60902;53.876;10.674;2023-11-21T00:31:16;7.57;;;4.70;;
72785;SDS011;60902;53.876;10.674;2023-11-21T00:31:27;7.43;;;4.60;;
72785;SDS011;60902;53.876;10.674;2023-11-21T00:31:38;7.90;;;4.80;;
72785;SDS011;60902;53.876;10.674;2023-11-21T00:31:49;8.20;;;4.90;;
72785;SDS011;60902;53.876;10.674;2023-11-21T00:32:00;7.85;;;4.75;;
72785;SDS011;60902;53.876;10.674;2023-11-21T00:32:11;7.60;;;4.63;;
72785;SDS011;60902;53.876;10.674;2023-11-21T00:32:22;7.35;;;4.50;;
72785;SDS011;60902;53.876;10.674;2023-11-21T00:32:32;7.55;;;4.57;;
72785;SDS011;60902;53.876;10.674;2023-11-21T00:32:44;7.50;;;4.50;;
72785;SDS011;60902;53.876;10.674;2023-11-21T00:32:55;7.50;;;4.70;;
72785;SDS011;60902;53.876;10.674;2023-11-21T00:33:07;7.80;;;4.88;;
72785;SDS011;60902;53.876;10.674;2023-11-21T00:33:17;8.02;;;5.13;;
72785;SDS011;60902;53.876;10.674;2023-11-21T00:33:28;8.30;;;5.30;;
72785;SDS011;60902;53.876;10.674;2023-11-21T00:33:39;8.52;;;5.25;;
72785;SDS011;60902;53.876;10.674;2023-11-21T00:33:50;7.80;;;4.90;;
72785;SDS011;60902;53.876;10.674;2023-11-21T00:34:02;7.40;;;4.57;;
72785;SDS011;60902;53.876;10.674;2023-11-21T00:34:13;7.75;;;4.78;;
72785;SDS011;60902;53.876;10.674;2023-11-21T00:34:24;8.10;;;5.03;;
72785;SDS011;60902;53.876;10.674;2023-11-21T00:34:35;8.05;;;5.05;;
72785;SDS011;60902;53.876;10.674;2023-11-21T00:34:46;8.00;;;4.80;;
72785;SDS011;60902;53.876;10.674;2023-11-21T00:34:57;8.23;;;5.07;;
72785;SDS011;60902;53.876;10.674;2023-11-21T00:35:10;8.27;;;4.97;;
72785;SDS011;60902;53.876;10.674;2023-11-21T00:35:21;7.78;;;4.88;;
72785;SDS011;60902;53.876;10.674;2023-11-21T00:35:32;7.50;;;4.70;;
72785;SDS011;60902;53.876;10.674;2023-11-21T00:35:43;7.65;;;4.80;;
72785;SDS011;60902;53.876;10.674;2023-11-21T00:35:54;7.88;;;4.60;;
72785;SDS011;60902;53.876;10.674;2023-11-21T00:36:05;7.57;;;4.43;;
72785;SDS011;60902;53.876;10.674;2023-11-21T00:36:19;8.00;;;4.45;;
72785;SDS011;60902;53.876;10.674;2023-11-21T00:36:30;8.10;;;4.63;;
72785;SDS011;60902;53.876;10.674;2023-11-21T00:36:41;7.72;;;4.65;;
72785;SDS011;60902;53.876;10.674;2023-11-21T00:36:54;7.72;;;4.72;;
72785;SDS011;60902;53.876;10.674;2023-11-21T00:37:05;7.82;;;4.70;;
72785;SDS011;60902;53.876;10.674;2023-11-21T00:37:17;8.13;;;4.88;;
72785;SDS011;60902;53.876;10.674;2023-11-21T00:37:28;7.70;;;4.60;;
72785;SDS011;60902;53.876;10.674;2023-11-21T00:37:41;7.63;;;4.68;;
72785;SDS011;60902;53.876;10.674;2023-11-21T00:37:52;8.32;;;4.90;;
72785;SDS011;60902;53.876;10.674;2023-11-21T00:38:03;8.25;;;5.00;;
72785;SDS011;60902;53.876;10.674;2023-11-21T00:38:14;8.15;;;5.03;;
72785;SDS011;60902;53.876;10.674;2023-11-21T00:38:25;7.97;;;5.10;;
72785;SDS011;60902;53.876;10.674;2023-11-21T00:38:37;8.13;;;5.30;;
72785;SDS011;60902;53.876;10.674;2023-11-21T00:38:50;7.55;;;4.88;;
72785;SDS011;60902;53.876;10.674;2023-11-21T00:39:02;7.30;;;4.65;;
72785;SDS011;60902;53.876;10.674;2023-11-21T00:39:15;7.35;;;4.72;;
72785;SDS011;60902;53.876;10.674;2023-11-21T00:39:26;7.47;;;4.75;;
72785;SDS011;60902;53.876;10.674;2023-11-21T00:39:37;7.22;;;4.68;;
72785;SDS011;60902;53.876;10.674;2023-11-21T00:39:48;7.32;;;4.72;;
72785;SDS011;60902;53.876;10.674;2023-11-21T00:39:59;7.50;;;4.70;;
72785;SDS011;60902;53.876;10.674;2023-11-21T00:40:13;7.85;;;4.72;;
72785;SDS011;60902;53.876;10.674;2023-11-21T00:40:25;7.70;;;4.53;;
72785;SDS011;60902;53.876;10.674;2023-11-21T00:40:36;7.20;;;4.30;;
72785;SDS011;60902;53.876;10.674;2023-11-21T00:40:48;6.95;;;4.18;;
72785;SDS011;60902;53.876;10.674;2023-11-21T00:40:58;7.03;;;4.40;;
72785;SDS011;60902;53.876;10.674;2023-11-21T00:41:09;7.00;;;4.40;;
72785;SDS011;60902;53.876;10.674;2023-11-21T00:41:21;7.60;;;4.50;;
72785;SDS011;60902;53.876;10.674;2023-11-21T00:41:32;7.88;;;4.75;;
72785;SDS011;60902;53.876;10.674;2023-11-21T00:41:43;8.00;;;5.10;;
72785;SDS011;60902;53.876;10.674;2023-11-21T00:41:54;7.97;;;4.95;;
72785;SDS011;60902;53.876;10.674;2023-11-21T00:42:06;7.88;;;4.88;;
72785;SDS011;60902;53.876;10.674;2023-11-21T00:42:18;7.65;;;4.78;;
72785;SDS011;60902;53.876;10.674;2023-11-21T00:42:29;7.57;;;4.88;;
72785;SDS011;60902;53.876;10.674;2023-11-21T00:42:40;7.75;;;4.78;;
72785;SDS011;60902;53.876;10.674;2023-11-21T00:42:51;7.38;;;4.68;;
72785;SDS011;60902;53.876;10.674;2023-11-21T00:43:02;6.88;;;4.50;;
72785;SDS011;60902;53.876;10.674;2023-11-21T00:43:14;6.60;;;4.25;;
72785;SDS011;60902;53.876;10.674;2023-11-21T00:43:25;7.00;;;4.30;;
72785;SDS011;60902;53.876;10.674;2023-11-21T00:43:36;7.17;;;4.23;;
72785;SDS011;60902;53.876;10.674;2023-11-21T00:43:46;7.38;;;4.43;;
72785;SDS011;60902;53.876;10.674;2023-11-21T00:43:57;7.20;;;4.53;;
72785;SDS011;60902;53.876;10.674;2023-11-21T00:44:09;7.80;;;4.72;;
72785;SDS011;60902;53.876;10.674;2023-11-21T00:44:20;7.70;;;4.70;;
72785;SDS011;60902;53.876;10.674;2023-11-21T00:44:31;7.80;;;4.70;;
72785;SDS011;60902;53.876;10.674;2023-11-21T00:44:42;7.37;;;4.63;;
72785;SDS011;60902;53.876;10.674;2023-11-21T00:44:53;7.45;;;4.60;;
72785;SDS011;60902;53.876;10.674;2023-11-21T00:45:05;7.38;;;4.38;;
72785;SDS011;60902;53.876;10.674;2023-11-21T00:45:17;7.50;;;4.40;;
72785;SDS011;60902;53.876;10.674;2023-11-21T00:45:28;7.53;;;4.70;;
72785;SDS011;60902;53.876;10.674;2023-11-21T00:45:39;7.82;;;4.82;;
72785;SDS011;60902;53.876;10.674;2023-11-21T00:45:50;8.38;;;4.88;;
72785;SDS011;60902;53.876;10.674;2023-11-21T00:46:03;8.13;;;4.72;;
72785;SDS011;60902;53.876;10.674;2023-11-21T00:46:14;7.50;;;4.65;;
72785;SDS011;60902;53.876;10.674;2023-11-21T00:46:25;7.37;;;4.50;;
72785;SDS011;60902;53.876;10.674;2023-11-21T00:46:39;7.85;;;4.60;;
72785;SDS011;60902;53.876;10.674;2023-11-21T00:46:50;7.55;;;4.70;;
72785;SDS011;60902;53.876;10.674;2023-11-21T00:47:02;7.55;;;4.68;;
72785;SDS011;60902;53.876;10.674;2023-11-21T00:47:13;7.60;;;4.70;;
72785;SDS011;60902;53.876;10.674;2023-11-21T00:47:24;7.60;;;4.75;;
72785;SDS011;60902;53.876;10.674;2023-11-21T00:47:35;7.47;;;4.65;;
72785;SDS011;60902;53.876;10.674;2023-11-21T00:47:45;7.50;;;4.70;;
72785;SDS011;60902;53.876;10.674;2023-11-21T00:47:56;7.55;;;4.53;;
72785;SDS011;60902;53.876;10.674;2023-11-21T00:48:08;7.40;;;4.43;;
72785;SDS011;60902;53.876;10.674;2023-11-21T00:48:19;7.28;;;4.47;;
72785;SDS011;60902;53.876;10.674;2023-11-21T00:48:30;7.32;;;4.57;;
72785;SDS011;60902;53.876;10.674;2023-11-21T00:48:41;7.50;;;4.72;;
72785;SDS011;60902;53.876;10.674;2023-11-21T00:48:52;7.30;;;4.60;;
72785;SDS011;60902;53.876;10.674;2023-11-21T00:49:04;7.53;;;4.72;;
72785;SDS011;60902;53.876;10.674;2023-11-21T00:49:15;7.35;;;4.60;;
72785;SDS011;60902;53.876;10.674;2023-11-21T00:49:26;7.33;;;4.40;;
72785;SDS011;60902;53.876;10.674;2023-11-21T00:49:38;7.28;;;4.43;;
72785;SDS011;60902;53.876;10.674;2023-11-21T00:49:49;7.45;;;4.50;;
72785;SDS011;60902;53.876;10.674;2023-11-21T00:50:00;7.38;;;4.53;;
72785;SDS011;60902;53.876;10.674;2023-11-21T00:50:11;7.30;;;4.47;;
72785;SDS011;60902;53.876;10.674;2023-11-21T00:50:22;7.13;;;4.65;;
72785;SDS011;60902;53.876;10.674;2023-11-21T00:50:33;7.47;;;4.87;;
72785;SDS011;60902;53.876;10.674;2023-11-21T00:50:45;7.47;;;4.85;;
72785;SDS011;60902;53.876;10.674;2023-11-21T00:50:56;7.77;;;5.00;;
72785;SDS011;60902;53.876;10.674;2023-11-21T00:51:07;7.60;;;4.82;;
72785;SDS011;60902;53.876;10.674;2023-11-21T00:51:18;7.35;;;4.57;;
72785;SDS011;60902;53.876;10.674;2023-11-21T00:51:28;7.50;;;4.30;;
72785;SDS011;60902;53.876;10.674;2023-11-21T00:51:39;7.40;;;4.22;;
72785;SDS011;60902;53.876;10.674;2023-11-21T00:51:50;7.35;;;4.53;;
72785;SDS011;60902;53.876;10.674;2023-11-21T00:52:03;7.30;;;4.68;;
72785;SDS011;60902;53.876;10.674;2023-11-21T00:52:14;7.47;;;4.80;;
72785;SDS011;60902;53.876;10.674;2023-11-21T00:52:25;7.75;;;4.80;;
72785;SDS011;60902;53.876;10.674;2023-11-21T00:52:36;7.55;;;4.93;;
72785;SDS011;60902;53.876;10.674;2023-11-21T00:52:49;7.63;;;4.75;;
72785;SDS011;60902;53.876;10.674;2023-11-21T00:53:01;7.25;;;4.43;;
72785;SDS011;60902;53.876;10.674;2023-11-21T00:53:12;7.55;;;4.40;;
72785;SDS011;60902;53.876;10.674;2023-11-21T00:53:23;7.90;;;4.60;;
72785;SDS011;60902;53.876;10.674;2023-11-21T00:53:35;7.85;;;4.68;;
72785;SDS011;60902;53.876;10.674;2023-11-21T00:53:46;7.93;;;5.00;;
72785;SDS011;60902;53.876;10.674;2023-11-21T00:53:57;7.88;;;4.97;;
72785;SDS011;60902;53.876;10.674;2023-11-21T00:54:08;7.80;;;4.78;;
72785;SDS011;60902;53.876;10.674;2023-11-21T00:54:19;7.25;;;4.45;;
72785;SDS011;60902;53.876;10.674;2023-11-21T00:54:30;7.30;;;4.57;;
72785;SDS011;60902;53.876;10.674;2023-11-21T00:54:41;7.30;;;4.80;;
72785;SDS011;60902;53.876;10.674;2023-11-21T00:54:53;7.57;;;4.80;;
72785;SDS011;60902;53.876;10.674;2023-11-21T00:55:04;7.70;;;4.80;;
72785;SDS011;60902;53.876;10.674;2023-11-21T00:55:17;7.65;;;4.70;;
72785;SDS011;60902;53.876;10.674;2023-11-21T00:55:28;7.13;;;4.47;;
72785;SDS011;60902;53.876;10.674;2023-11-21T00:55:40;7.28;;;4.53;;
72785;SDS011;60902;53.876;10.674;2023-11-21T00:55:51;7.60;;;4.63;;
72785;SDS011;60902;53.876;10.674;2023-11-21T00:56:02;8.15;;;4.80;;
72785;SDS011;60902;53.876;10.674;2023-11-21T00:56:13;8.23;;;4.80;;
72785;SDS011;60902;53.876;10.674;2023-11-21T00:56:25;7.45;;;4.50;;
72785;SDS011;60902;53.876;10.674;2023-11-21T00:56:35;7.10;;;4.38;;
72785;SDS011;60902;53.876;10.674;2023-11-21T00:56:48;7.03;;;4.30;;
72785;SDS011;60902;53.876;10.674;2023-11-21T00:56:59;7.43;;;4.67;;
72785;SDS011;60902;53.876;10.674;2023-11-21T00:57:10;7.80;;;4.70;;
72785;SDS011;60902;53.876;10.674;2023-11-21T00:57:22;7.88;;;4.53;;
72785;SDS011;60902;53.876;10.674;2023-11-21T00:57:32;7.78;;;4.53;;
72785;SDS011;60902;53.876;10.674;2023-11-21T00:57:43;7.28;;;4.30;;
72785;SDS011;60902;53.876;10.674;2023-11-21T00:57:54;7.30;;;4.45;;
72785;SDS011;60902;53.876;10.674;2023-11-21T00:58:05;7.30;;;4.37;;
72785;SDS011;60902;53.876;10.674;2023-11-21T00:58:16;7.53;;;4.47;;
72785;SDS011;60902;53.876;10.674;2023-11-21T00:58:27;7.60;;;4.68;;
72785;SDS011;60902;53.876;10.674;2023-11-21T00:58:38;7.75;;;4.72;;
72785;SDS011;60902;53.876;10.674;2023-11-21T00:58:52;7.35;;;4.40;;
72785;SDS011;60902;53.876;10.674;2023-11-21T00:59:05;6.97;;;4.20;;
72785;SDS011;60902;53.876;10.674;2023-11-21T00:59:17;7.15;;;4.30;;
72785;SDS011;60902;53.876;10.674;2023-11-21T00:59:27;7.40;;;4.40;;
72785;SDS011;60902;53.876;10.674;2023-11-21T00:59:38;7.47;;;4.40;;
72785;SDS011;60902;53.876;10.674;2023-11-21T00:59:49;7.53;;;4.37;;
72785;SDS011;60902;53.876;10.674;2023-11-21T01:00:00;7.95;;;4.30;;
72785;SDS011;60902;53.876;10.674;2023-11-21T01:00:11;7.75;;;4.50;;
72785;SDS011;60902;53.876;10.674;2023-11-21T01:00:25;7.75;;;4.47;;
72785;SDS011;60902;53.876;10.674;2023-11-21T01:00:36;7.10;;;4.50;;
72785;SDS011;60902;53.876;10.674;2023-11-21T01:00:49;7.35;;;4.50;;
72785;SDS011;60902;53.876;10.674;2023-11-21T01:01:01;7.60;;;4.60;;
72785;SDS011;60902;53.876;10.674;2023-11-21T01:01:13;7.68;;;4.60;;
72785;SDS011;60902;53.876;10.674;2023-11-21T01:01:24;7.18;;;4.50;;
72785;SDS011;60902;53.876;10.674;2023-11-21T01:01:35;7.20;;;4.32;;
72785;SDS011;60902;53.876;10.674;2023-11-21T01:01:47;6.97;;;4.20;;
72785;SDS011;60902;53.876;10.674;2023-11-21T01:01:58;6.95;;;4.10;;
72785;SDS011;60902;53.876;10.674;2023-11-21T01:02:11;7.18;;;4.43;;
72785;SDS011;60902;53.876;10.674;2023-11-21T01:02:22;7.57;;;4.70;;
72785;SDS011;60902;53.876;10.674;2023-11-21T01:02:33;7.72;;;4.85;;
72785;SDS011;60902;53.876;10.674;2023-11-21T01:02:45;7.85;;;4.90;;
72785;SDS011;60902;53.876;10.674;2023-11-21T01:02:59;8.25;;;5.00;;
72785;SDS011;60902;53.876;10.674;2023-11-21T01:03:10;8.52;;;5.15;;
72785;SDS011;60902;53.876;10.674;2023-11-21T01:03:21;8.07;;;4.95;;
72785;SDS011;60902;53.876;10.674;2023-11-21T01:03:32;7.45;;;4.82;;
72785;SDS011;60902;53.876;10.674;2023-11-21T01:03:42;7.22;;;4.65;;
72785;SDS011;60902;53.876;10.674;2023-11-21T01:03:53;7.25;;;4.57;;
72785;SDS011;60902;53.876;10.674;2023-11-21T01:04:04;7.40;;;4.30;;
72785;SDS011;60902;53.876;10.674;2023-11-21T01:04:16;7.63;;;4.40;;
72785;SDS011;60902;53.876;10.674;2023-11-21T01:04:27;7.78;;;4.65;;
72785;SDS011;60902;53.876;10.674;2023-11-21T01:04:38;7.43;;;4.70;;
72785;SDS011;60902;53.876;10.674;2023-11-21T01:04:49;7.50;;;4.70;;
72785;SDS011;60902;53.876;10.674;2023-11-21T01:05:01;7.50;;;4.75;;
72785;SDS011;60902;53.876;10.674;2023-11-21T01:05:12;6.90;;;4.43;;
72785;SDS011;60902;53.876;10.674;2023-11-21T01:05:23;6.95;;;4.43;;
72785;SDS011;60902;53.876;10.674;2023-11-21T01:05:34;6.97;;;4.10;;
72785;SDS011;60902;53.876;10.674;2023-11-21T01:05:45;7.00;;;4.15;;
72785;SDS011;60902;53.876;10.674;2023-11-21T01:05:56;7.00;;;4.43;;
72785;SDS011;60902;53.876;10.674;2023-11-21T01:06:07;6.95;;;4.55;;
72785;SDS011;60902;53.876;10.674;2023-11-21T01:06:19;7.20;;;4.47;;
72785;SDS011;60902;53.876;10.674;2023-11-21T01:06:30;7.22;;;4.18;;
72785;SDS011;60902;53.876;10.674;2023-11-21T01:06:41;8.10;;;4.47;;
72785;SDS011;60902;53.876;10.674;2023-11-21T01:06:52;8.25;;;4.60;;
72785;SDS011;60902;53.876;10.674;2023-11-21T01:07:04;8.05;;;4.63;;
72785;SDS011;60902;53.876;10.674;2023-11-21T01:07:17;7.13;;;4.45;;
72785;SDS011;60902;53.876;10.674;2023-11-21T01:07:30;6.82;;;4.18;;